Newportville, Pennsylvania
Current Conditions -  °F | °C
As of 6:54 AM on Thursday 29 Jan 2015 (Local Time) from KPNE Reporting Station
Clear Clear  
Wind Chill: 18°   Ceiling: Unl
Heat Index: 18°   Visibility: 10mi
Dew Point:   Wind: 0mph
Humidity: 52%   Direction: NA
Pressure: 30.35"   Gusts: NA
Location:  40.1547°N, 74.8824°W
Report Text: KPNE 291154Z AUTO 00000KT 10SM CLR M08/M16 A3035 RMK AO2 SLP281 T10781161 11039 21094 53010 TSNO
Loading
Personal Weather Stations






























Interactive Weather Map New forecast layout! Learn more

10-Day Weather Forecast

Advertisements
Track Severe Weather on mobile